createdAt,value
2018-06-21T00:00:21.619Z,0.00
2018-06-21T00:01:21.610Z,0.00
2018-06-21T00:02:21.617Z,0.00
2018-06-21T00:03:21.619Z,0.00
2018-06-21T00:04:21.626Z,0.00
2018-06-21T00:05:21.628Z,0.00
2018-06-21T00:06:21.632Z,0.00
2018-06-21T00:07:21.636Z,0.00
2018-06-21T00:08:21.642Z,0.00
2018-06-21T00:09:21.658Z,0.00
2018-06-21T00:10:21.644Z,0.00
2018-06-21T00:11:21.646Z,0.00
2018-06-21T00:12:21.654Z,0.00
2018-06-21T00:13:21.662Z,0.00
2018-06-21T00:14:21.662Z,0.00
2018-06-21T00:15:21.671Z,0.00
2018-06-21T00:16:21.670Z,0.00
2018-06-21T00:17:21.672Z,0.00
2018-06-21T00:18:21.676Z,0.00
2018-06-21T00:19:21.677Z,0.00
2018-06-21T00:20:21.707Z,0.00
2018-06-21T00:21:21.691Z,0.00
2018-06-21T00:22:21.692Z,0.00
2018-06-21T00:23:21.694Z,0.00
2018-06-21T00:24:21.706Z,0.00
2018-06-21T00:25:21.703Z,0.00
2018-06-21T00:26:21.706Z,0.00
2018-06-21T00:27:21.710Z,0.00
2018-06-21T00:28:21.713Z,0.00
2018-06-21T00:29:21.735Z,0.00
2018-06-21T00:30:21.723Z,0.00
2018-06-21T00:31:21.726Z,0.00
2018-06-21T00:32:21.728Z,0.00
2018-06-21T00:33:21.732Z,0.00
2018-06-21T00:34:21.735Z,0.00
2018-06-21T00:35:21.738Z,0.00
2018-06-21T00:36:21.739Z,0.00
2018-06-21T00:37:21.744Z,0.00
2018-06-21T00:38:21.753Z,0.00
2018-06-21T00:39:21.750Z,0.00
2018-06-21T00:40:21.759Z,0.00
2018-06-21T00:41:21.755Z,0.00
2018-06-21T00:42:21.762Z,0.00
2018-06-21T00:43:21.768Z,0.00
2018-06-21T00:44:21.771Z,0.00
2018-06-21T00:45:21.774Z,0.00
2018-06-21T00:46:21.789Z,0.00
2018-06-21T00:47:21.785Z,0.00
2018-06-21T00:48:21.783Z,0.00
2018-06-21T00:49:21.787Z,0.00
2018-06-21T00:50:21.793Z,0.00
2018-06-21T00:51:21.796Z,0.00
2018-06-21T00:52:21.806Z,0.00
2018-06-21T00:53:21.802Z,0.00
2018-06-21T00:54:21.804Z,0.00
2018-06-21T00:55:21.807Z,0.00
2018-06-21T00:56:21.811Z,0.00
2018-06-21T00:57:21.820Z,0.00
2018-06-21T00:58:21.836Z,0.00
2018-06-21T00:59:21.822Z,0.00
2018-06-21T01:00:21.826Z,0.00
2018-06-21T01:01:21.829Z,0.00
2018-06-21T01:02:21.831Z,0.00
2018-06-21T01:03:21.835Z,0.00
2018-06-21T01:04:21.836Z,0.00
2018-06-21T01:05:21.841Z,0.00
2018-06-21T01:06:21.845Z,0.00
2018-06-21T01:07:21.849Z,0.00
2018-06-21T01:08:21.865Z,0.00
2018-06-21T01:09:21.857Z,0.00
2018-06-21T01:10:21.862Z,0.00
2018-06-21T01:11:21.862Z,0.00
2018-06-21T01:12:21.869Z,0.00
2018-06-21T01:13:21.868Z,0.00
2018-06-21T01:14:21.872Z,0.00
2018-06-21T01:15:21.875Z,0.00
2018-06-21T01:16:21.886Z,0.00
2018-06-21T01:17:21.879Z,0.00
2018-06-21T01:18:21.911Z,0.00
2018-06-21T01:19:21.892Z,0.00
2018-06-21T01:20:21.888Z,0.00
2018-06-21T01:21:21.892Z,0.00
2018-06-21T01:22:21.895Z,0.00
2018-06-21T01:23:21.900Z,0.00
2018-06-21T01:24:21.902Z,0.00
2018-06-21T01:25:21.963Z,0.00
2018-06-21T01:26:21.920Z,0.00
2018-06-21T01:27:21.909Z,0.00
2018-06-21T01:28:21.930Z,0.00
2018-06-21T01:29:21.925Z,0.00
2018-06-21T01:30:21.918Z,0.00
2018-06-21T01:31:21.924Z,0.00
2018-06-21T01:32:21.925Z,0.00
2018-06-21T01:33:21.929Z,0.00
2018-06-21T01:34:21.933Z,0.00
2018-06-21T01:35:21.934Z,0.00
2018-06-21T01:36:21.939Z,0.00
2018-06-21T01:37:21.941Z,0.00
2018-06-21T01:38:21.947Z,0.00
2018-06-21T01:39:21.949Z,0.00
2018-06-21T01:40:21.951Z,0.00
2018-06-21T01:41:21.953Z,0.00
2018-06-21T01:42:21.955Z,0.00
2018-06-21T01:43:21.956Z,0.00
2018-06-21T01:44:21.963Z,0.00
2018-06-21T01:45:21.963Z,0.00
2018-06-21T01:46:21.964Z,0.00
2018-06-21T01:47:21.972Z,0.00
2018-06-21T01:48:21.977Z,0.00
2018-06-21T01:49:21.975Z,0.00
2018-06-21T01:50:21.979Z,0.00
2018-06-21T01:51:21.979Z,0.00
2018-06-21T01:52:21.983Z,0.00
2018-06-21T01:53:21.988Z,0.00
2018-06-21T01:54:21.990Z,0.00
2018-06-21T01:55:21.992Z,0.00
2018-06-21T01:56:22.025Z,0.00
2018-06-21T01:57:22.017Z,0.00
2018-06-21T01:58:22.004Z,0.00
2018-06-21T01:59:22.006Z,0.00
2018-06-21T02:00:22.007Z,0.00
2018-06-21T02:01:22.012Z,0.00
2018-06-21T02:02:22.017Z,0.00
2018-06-21T02:03:22.016Z,0.00
2018-06-21T02:04:22.024Z,0.00
2018-06-21T02:05:22.024Z,0.00
2018-06-21T02:06:22.026Z,0.00
2018-06-21T02:07:22.040Z,0.00
2018-06-21T02:08:22.030Z,0.00
2018-06-21T02:09:22.041Z,0.00
2018-06-21T02:10:22.034Z,0.00
2018-06-21T02:11:22.039Z,0.00
2018-06-21T02:12:22.042Z,0.00
2018-06-21T02:13:22.043Z,0.00
2018-06-21T02:14:22.047Z,0.00
2018-06-21T02:15:22.050Z,0.00
2018-06-21T02:16:22.050Z,0.00
2018-06-21T02:17:22.075Z,0.00
2018-06-21T02:18:22.059Z,0.00
2018-06-21T02:19:22.061Z,0.00
2018-06-21T02:20:22.081Z,0.00
2018-06-21T02:21:22.066Z,0.00
2018-06-21T02:22:22.089Z,0.00
2018-06-21T02:23:22.069Z,0.00
2018-06-21T02:24:22.070Z,0.00
2018-06-21T02:25:22.076Z,0.00
2018-06-21T02:26:22.111Z,0.00
2018-06-21T02:27:22.087Z,0.00
2018-06-21T02:28:22.099Z,0.00
2018-06-21T02:29:22.088Z,0.00
2018-06-21T02:30:22.098Z,0.00
2018-06-21T02:31:22.095Z,4.00
2018-06-21T02:32:22.094Z,4.00
2018-06-21T02:33:23.672Z,0.00
2018-06-21T02:34:22.165Z,0.00
2018-06-21T02:35:22.109Z,0.00
2018-06-21T02:36:22.116Z,4.00
2018-06-21T02:37:22.108Z,4.00
2018-06-21T02:38:22.117Z,0.00
2018-06-21T02:39:22.122Z,4.00
2018-06-21T02:40:22.118Z,4.00
2018-06-21T02:41:22.124Z,4.00
2018-06-21T02:42:22.130Z,4.00
2018-06-21T02:43:22.128Z,4.00
2018-06-21T02:44:22.133Z,8.00
2018-06-21T02:45:22.152Z,4.00
2018-06-21T02:46:22.170Z,8.00
2018-06-21T02:47:22.136Z,8.00
2018-06-21T02:48:22.142Z,8.00
2018-06-21T02:49:22.142Z,12.00
2018-06-21T02:50:22.152Z,12.00
2018-06-21T02:51:22.145Z,12.00
2018-06-21T02:52:22.150Z,12.00
2018-06-21T02:53:22.153Z,16.00
2018-06-21T02:54:22.154Z,16.00
2018-06-21T02:55:22.157Z,16.00
2018-06-21T02:56:22.161Z,20.00
2018-06-21T02:57:22.162Z,24.00
2018-06-21T02:58:22.165Z,24.00
2018-06-21T02:59:22.168Z,28.00
2018-06-21T03:00:22.170Z,32.00
2018-06-21T03:01:22.173Z,32.00
2018-06-21T03:02:22.174Z,36.00
2018-06-21T03:03:22.176Z,40.00
2018-06-21T03:04:22.181Z,40.00
2018-06-21T03:05:22.193Z,48.00
2018-06-21T03:06:22.207Z,48.00
2018-06-21T03:07:22.187Z,52.00
2018-06-21T03:08:22.193Z,56.00
2018-06-21T03:09:22.194Z,60.00
2018-06-21T03:10:22.217Z,64.00
2018-06-21T03:11:22.230Z,68.00
2018-06-21T03:12:22.201Z,72.00
2018-06-21T03:13:22.211Z,76.00
2018-06-21T03:14:22.208Z,84.00
2018-06-21T03:15:22.228Z,88.00
2018-06-21T03:16:22.222Z,92.00
2018-06-21T03:17:22.221Z,96.00
2018-06-21T03:18:22.257Z,100.00
2018-06-21T03:19:22.221Z,108.00
2018-06-21T03:20:22.224Z,116.00
2018-06-21T03:21:22.230Z,120.00
2018-06-21T03:22:22.228Z,124.00
2018-06-21T03:23:22.237Z,132.00
2018-06-21T03:24:22.236Z,140.00
2018-06-21T03:25:22.263Z,144.00
2018-06-21T03:26:22.241Z,148.00
2018-06-21T03:27:22.243Z,156.00
2018-06-21T03:28:22.250Z,164.00
2018-06-21T03:29:22.250Z,172.00
2018-06-21T03:30:22.255Z,176.00
2018-06-21T03:31:22.254Z,184.00
2018-06-21T03:32:22.259Z,192.00
2018-06-21T03:33:22.267Z,196.00
2018-06-21T03:34:22.261Z,204.00
2018-06-21T03:35:22.270Z,212.00
2018-06-21T03:36:22.269Z,220.00
2018-06-21T03:37:22.281Z,224.00
2018-06-21T03:38:22.277Z,236.00
2018-06-21T03:39:22.279Z,244.00
2018-06-21T03:40:22.281Z,252.00
2018-06-21T03:41:22.284Z,264.00
2018-06-21T03:42:22.292Z,280.00
2018-06-21T03:43:22.288Z,296.00
2018-06-21T03:44:22.302Z,308.00
2018-06-21T03:45:22.294Z,324.00
2018-06-21T03:46:22.300Z,332.00
2018-06-21T03:47:22.305Z,344.00
2018-06-21T03:48:22.303Z,352.00
2018-06-21T03:49:22.316Z,364.00
2018-06-21T03:50:22.310Z,376.00
2018-06-21T03:51:22.313Z,384.00
2018-06-21T03:52:22.370Z,392.00
2018-06-21T03:53:22.318Z,396.00
2018-06-21T03:54:22.322Z,408.00
2018-06-21T03:55:22.324Z,420.00
2018-06-21T03:56:22.330Z,432.00
2018-06-21T03:57:22.333Z,448.00
2018-06-21T03:58:22.336Z,460.00
2018-06-21T03:59:22.333Z,476.00
2018-06-21T04:00:22.364Z,504.00
2018-06-21T04:01:22.347Z,516.00
2018-06-21T04:02:22.365Z,528.00
2018-06-21T04:03:22.351Z,532.00
2018-06-21T04:04:22.352Z,532.00
2018-06-21T04:05:22.410Z,544.00
2018-06-21T04:06:22.362Z,560.00
2018-06-21T04:07:22.360Z,588.00
2018-06-21T04:08:22.377Z,584.00
2018-06-21T04:09:22.374Z,604.00
2018-06-21T04:10:22.380Z,580.00
2018-06-21T04:11:22.401Z,536.00
2018-06-21T04:12:22.376Z,708.00
2018-06-21T04:13:22.393Z,696.00
2018-06-21T04:14:22.382Z,648.00
2018-06-21T04:15:22.415Z,564.00
2018-06-21T04:16:22.414Z,520.00
2018-06-21T04:17:22.699Z,564.00
2018-06-21T04:18:22.407Z,596.00
2018-06-21T04:19:22.397Z,620.00
2018-06-21T04:20:22.403Z,496.00
2018-06-21T04:21:22.403Z,452.00
2018-06-21T04:22:22.411Z,472.00
2018-06-21T04:23:22.444Z,496.00
2018-06-21T04:24:22.437Z,524.00
2018-06-21T04:25:22.429Z,716.00
2018-06-21T04:26:22.453Z,752.00
2018-06-21T04:27:22.436Z,756.00
2018-06-21T04:28:22.429Z,744.00
2018-06-21T04:29:22.436Z,728.00
2018-06-21T04:30:22.509Z,728.00
2018-06-21T04:31:22.441Z,732.00
2018-06-21T04:32:22.510Z,732.00
2018-06-21T04:33:22.469Z,720.00
2018-06-21T04:34:22.456Z,716.00
2018-06-21T04:35:22.459Z,716.00
2018-06-21T04:36:23.206Z,712.00
2018-06-21T04:37:22.465Z,712.00
2018-06-21T04:38:22.470Z,720.00
2018-06-21T04:39:22.477Z,720.00
2018-06-21T04:40:22.479Z,712.00
2018-06-21T04:41:22.487Z,716.00
2018-06-21T04:42:22.485Z,712.00
2018-06-21T04:43:22.492Z,704.00
2018-06-21T04:44:22.499Z,708.00
2018-06-21T04:45:22.508Z,704.00
2018-06-21T04:46:22.502Z,700.00
2018-06-21T04:47:22.506Z,704.00
2018-06-21T04:48:22.507Z,708.00
2018-06-21T04:49:22.516Z,716.00
2018-06-21T04:50:22.517Z,720.00
2018-06-21T04:51:22.523Z,724.00
2018-06-21T04:52:22.524Z,728.00
2018-06-21T04:53:22.532Z,732.00
2018-06-21T04:54:22.546Z,740.00
2018-06-21T04:55:22.605Z,744.00
2018-06-21T04:56:22.542Z,748.00
2018-06-21T04:57:22.548Z,752.00
2018-06-21T04:58:22.567Z,764.00
2018-06-21T04:59:22.629Z,776.00
2018-06-21T05:00:22.562Z,792.00
2018-06-21T05:01:22.583Z,804.00
2018-06-21T05:02:22.567Z,812.00
2018-06-21T05:03:22.601Z,824.00
2018-06-21T05:04:22.619Z,836.00
2018-06-21T05:05:22.590Z,848.00
2018-06-21T05:06:22.639Z,868.00
2018-06-21T05:07:22.590Z,884.00
2018-06-21T05:08:22.610Z,900.00
2018-06-21T05:09:22.612Z,920.00
2018-06-21T05:10:22.602Z,940.00
2018-06-21T05:11:22.657Z,960.00
2018-06-21T05:12:22.613Z,976.00
2018-06-21T05:13:22.618Z,1004.00
2018-06-21T05:14:22.623Z,1032.00
2018-06-21T05:15:22.626Z,1056.00
2018-06-21T05:16:22.632Z,1080.00
2018-06-21T05:17:24.207Z,1116.00
2018-06-21T05:18:22.792Z,1148.00
2018-06-21T05:19:22.645Z,1172.00
2018-06-21T05:20:22.649Z,1196.00
2018-06-21T05:21:22.652Z,1236.00
2018-06-21T05:22:22.937Z,1268.00
2018-06-21T05:23:22.664Z,1308.00
2018-06-21T05:24:22.688Z,1344.00
2018-06-21T05:25:22.675Z,1376.00
2018-06-21T05:26:22.678Z,1408.00
2018-06-21T05:27:22.685Z,1444.00
2018-06-21T05:28:22.686Z,1472.00
2018-06-21T05:29:22.692Z,1512.00
2018-06-21T05:30:22.696Z,1532.00
2018-06-21T05:31:22.701Z,1568.00
2018-06-21T05:32:22.706Z,1580.00
2018-06-21T05:33:22.708Z,1632.00
2018-06-21T05:34:22.715Z,1648.00
2018-06-21T05:35:22.722Z,1656.00
2018-06-21T05:36:22.726Z,1660.00
2018-06-21T05:37:22.753Z,1664.00
2018-06-21T05:38:22.736Z,1680.00
2018-06-21T05:39:22.739Z,1688.00
2018-06-21T05:40:22.749Z,1704.00
2018-06-21T05:41:22.753Z,1696.00
2018-06-21T05:42:22.754Z,1732.00
2018-06-21T05:43:22.760Z,1744.00
2018-06-21T05:44:22.834Z,1748.00
2018-06-21T05:45:22.772Z,1732.00
2018-06-21T05:46:22.781Z,1728.00
2018-06-21T05:47:22.782Z,1740.00
2018-06-21T05:48:22.790Z,1744.00
2018-06-21T05:49:22.792Z,1744.00
2018-06-21T05:50:22.809Z,1756.00
2018-06-21T05:51:24.726Z,1764.00
2018-06-21T05:52:22.808Z,1792.00
2018-06-21T05:53:22.811Z,1796.00
2018-06-21T05:54:22.817Z,1852.00
2018-06-21T05:55:22.823Z,1888.00
2018-06-21T05:56:22.836Z,1900.00
2018-06-21T05:57:22.851Z,1920.00
2018-06-21T05:58:22.848Z,1932.00
2018-06-21T05:59:22.876Z,1860.00
2018-06-21T06:00:22.866Z,1840.00
2018-06-21T06:01:22.955Z,1780.00
2018-06-21T06:02:22.860Z,1972.00
2018-06-21T06:03:22.887Z,1960.00
2018-06-21T06:04:22.872Z,2016.00
2018-06-21T06:05:22.876Z,2024.00
2018-06-21T06:06:22.881Z,2016.00
2018-06-21T06:07:22.903Z,2020.00
2018-06-21T06:08:23.034Z,2040.00
2018-06-21T06:09:22.903Z,2024.00
2018-06-21T06:10:22.903Z,2020.00
2018-06-21T06:11:23.066Z,2032.00
2018-06-21T06:12:22.916Z,2032.00
2018-06-21T06:13:22.940Z,2040.00
2018-06-21T06:14:22.945Z,2044.00
2018-06-21T06:15:22.935Z,2048.00
2018-06-21T06:16:22.938Z,2044.00
2018-06-21T06:17:22.944Z,2064.00
2018-06-21T06:18:22.949Z,2044.00
2018-06-21T06:19:22.958Z,2048.00
2018-06-21T06:20:22.965Z,2052.00
2018-06-21T06:21:22.968Z,2060.00
2018-06-21T06:22:22.972Z,2064.00
2018-06-21T06:23:22.973Z,2096.00
2018-06-21T06:24:22.999Z,2148.00
2018-06-21T06:25:22.989Z,2492.00
2018-06-21T06:26:22.995Z,3220.00
2018-06-21T06:27:23.012Z,3848.00
2018-06-21T06:28:23.005Z,4124.00
2018-06-21T06:29:23.011Z,4148.00
2018-06-21T06:30:23.018Z,4164.00
2018-06-21T06:31:23.025Z,4156.00
2018-06-21T06:32:23.033Z,4136.00
2018-06-21T06:33:23.034Z,4116.00
2018-06-21T06:34:23.054Z,4124.00
2018-06-21T06:35:23.061Z,4152.00
2018-06-21T06:36:23.054Z,4160.00
2018-06-21T06:37:23.057Z,4152.00
2018-06-21T06:38:23.062Z,4156.00
2018-06-21T06:39:23.071Z,4164.00
2018-06-21T06:40:23.090Z,4180.00
2018-06-21T06:41:23.084Z,4172.00
2018-06-21T06:42:23.092Z,4196.00
2018-06-21T06:43:23.097Z,4192.00
2018-06-21T06:44:23.104Z,4188.00
2018-06-21T06:45:23.112Z,4184.00
2018-06-21T06:46:23.118Z,4196.00
2018-06-21T06:47:23.125Z,4212.00
2018-06-21T06:48:23.134Z,4220.00
2018-06-21T06:49:23.138Z,4224.00
2018-06-21T06:50:23.148Z,4232.00
2018-06-21T06:51:23.154Z,4248.00
2018-06-21T06:52:23.162Z,4264.00
2018-06-21T06:53:23.175Z,4292.00
2018-06-21T06:54:23.187Z,4280.00
2018-06-21T06:55:23.186Z,4284.00
2018-06-21T06:56:23.208Z,4308.00
2018-06-21T06:57:23.201Z,4340.00
2018-06-21T06:58:23.211Z,4380.00
2018-06-21T06:59:23.226Z,4392.00
2018-06-21T07:00:23.225Z,4424.00
2018-06-21T07:01:23.242Z,4436.00
2018-06-21T07:02:23.249Z,4416.00
2018-06-21T07:03:23.302Z,4332.00
2018-06-21T07:04:23.303Z,3648.00
2018-06-21T07:05:23.274Z,4572.00
2018-06-21T07:06:23.279Z,4568.00
2018-06-21T07:07:23.287Z,4604.00
2018-06-21T07:08:23.334Z,4636.00
2018-06-21T07:09:23.322Z,4672.00
2018-06-21T07:10:23.312Z,4748.00
2018-06-21T07:11:23.318Z,4792.00
2018-06-21T07:12:23.351Z,4956.00
2018-06-21T07:13:23.353Z,5088.00
2018-06-21T07:14:23.439Z,5160.00
2018-06-21T07:15:23.386Z,5312.00
2018-06-21T07:16:23.366Z,5376.00
2018-06-21T07:17:23.371Z,5436.00
2018-06-21T07:18:23.383Z,5568.00
2018-06-21T07:19:23.390Z,5620.00
2018-06-21T07:20:23.409Z,5776.00
2018-06-21T07:21:23.410Z,5816.00
2018-06-21T07:22:23.425Z,5908.00
2018-06-21T07:23:23.426Z,5948.00
2018-06-21T07:24:23.437Z,6004.00
2018-06-21T07:25:23.463Z,6048.00
2018-06-21T07:26:23.467Z,6080.00
2018-06-21T07:27:23.465Z,6156.00
2018-06-21T07:28:23.524Z,6316.00
2018-06-21T07:29:23.488Z,4620.00
2018-06-21T07:30:23.492Z,1640.00
2018-06-21T07:31:23.501Z,6616.00
2018-06-21T07:32:23.521Z,6660.00
2018-06-21T07:33:23.526Z,3948.00
2018-06-21T07:34:23.568Z,6568.00
2018-06-21T07:35:23.551Z,6564.00
2018-06-21T07:36:23.575Z,6608.00
2018-06-21T07:37:23.560Z,6200.00
2018-06-21T07:38:23.586Z,3608.00
2018-06-21T07:39:23.583Z,6188.00
2018-06-21T07:40:23.592Z,3076.00
2018-06-21T07:41:23.601Z,6416.00
2018-06-21T07:42:23.609Z,2192.00
2018-06-21T07:43:23.616Z,5648.00
2018-06-21T07:44:23.628Z,4648.00
2018-06-21T07:45:23.636Z,2740.00
2018-06-21T07:46:23.651Z,5088.00
2018-06-21T07:47:23.681Z,4316.00
2018-06-21T07:48:23.670Z,3220.00
2018-06-21T07:49:23.704Z,1556.00
2018-06-21T07:50:23.697Z,2012.00
2018-06-21T07:51:23.703Z,6644.00
2018-06-21T07:52:23.767Z,5724.00
2018-06-21T07:53:23.715Z,4880.00
2018-06-21T07:54:23.723Z,4772.00
2018-06-21T07:55:23.740Z,5188.00
2018-06-21T07:56:23.777Z,7908.00
2018-06-21T07:57:23.810Z,8188.00
2018-06-21T07:58:23.760Z,3008.00
2018-06-21T07:59:23.770Z,5120.00
2018-06-21T08:00:23.782Z,8488.00
2018-06-21T08:01:23.788Z,6688.00
2018-06-21T08:02:23.797Z,6968.00
2018-06-21T08:03:23.834Z,7632.00
2018-06-21T08:04:23.818Z,7968.00
2018-06-21T08:05:23.833Z,8448.00
2018-06-21T08:06:23.837Z,8176.00
2018-06-21T08:07:23.846Z,6524.00
2018-06-21T08:08:23.856Z,5776.00
2018-06-21T08:09:23.864Z,6664.00
2018-06-21T08:10:23.876Z,2876.00
2018-06-21T08:11:23.889Z,5576.00
2018-06-21T08:12:23.900Z,3256.00
2018-06-21T08:13:24.034Z,6152.00
2018-06-21T08:14:23.919Z,6276.00
2018-06-21T08:15:23.946Z,3584.00
2018-06-21T08:16:23.970Z,5564.00
2018-06-21T08:17:23.951Z,5432.00
2018-06-21T08:18:23.955Z,3340.00
2018-06-21T08:19:23.963Z,6904.00
2018-06-21T08:20:24.029Z,4648.00
2018-06-21T08:21:24.014Z,3404.00
2018-06-21T08:22:23.993Z,2880.00
2018-06-21T08:23:24.005Z,4368.00
2018-06-21T08:24:24.011Z,2404.00
2018-06-21T08:25:24.025Z,2748.00
2018-06-21T08:26:24.031Z,2704.00
2018-06-21T08:27:24.058Z,2816.00
2018-06-21T08:28:24.047Z,3332.00
2018-06-21T08:29:24.058Z,4880.00
2018-06-21T08:30:24.064Z,3512.00
2018-06-21T08:31:24.070Z,3416.00
2018-06-21T08:32:24.079Z,3308.00
2018-06-21T08:33:24.094Z,4232.00
2018-06-21T08:34:24.099Z,3716.00
2018-06-21T08:35:24.105Z,3556.00
2018-06-21T08:36:24.116Z,2968.00
2018-06-21T08:37:24.120Z,2820.00
2018-06-21T08:38:24.150Z,2960.00
2018-06-21T08:39:24.137Z,4264.00
2018-06-21T08:40:24.144Z,2856.00
2018-06-21T08:41:24.151Z,4624.00
2018-06-21T08:42:24.180Z,3416.00
2018-06-21T08:43:24.169Z,3028.00
2018-06-21T08:44:24.179Z,4468.00
2018-06-21T08:45:24.203Z,4912.00
2018-06-21T08:46:24.190Z,3124.00
2018-06-21T08:47:24.197Z,3712.00
2018-06-21T08:48:24.201Z,2992.00
2018-06-21T08:49:24.215Z,7492.00
2018-06-21T08:50:24.240Z,11752.00
2018-06-21T08:51:24.223Z,3680.00
2018-06-21T08:52:24.236Z,10948.00
2018-06-21T08:53:24.242Z,9896.00
2018-06-21T08:54:24.283Z,10408.00
2018-06-21T08:55:24.254Z,4292.00
2018-06-21T08:56:24.264Z,9236.00
2018-06-21T08:57:24.273Z,9876.00
2018-06-21T08:58:24.343Z,8812.00
2018-06-21T08:59:24.288Z,7644.00
2018-06-21T09:00:24.314Z,9600.00
2018-06-21T09:01:24.333Z,9604.00
2018-06-21T09:02:24.314Z,8048.00
2018-06-21T09:03:24.320Z,7728.00
2018-06-21T09:04:24.329Z,8952.00
2018-06-21T09:05:24.337Z,8204.00
2018-06-21T09:06:24.344Z,6072.00
2018-06-21T09:07:24.354Z,3888.00
2018-06-21T09:08:24.361Z,4648.00
2018-06-21T09:09:24.368Z,4592.00
2018-06-21T09:10:27.277Z,3548.00
2018-06-21T09:11:24.385Z,3704.00
2018-06-21T09:12:24.396Z,3228.00
2018-06-21T09:13:24.397Z,3292.00
2018-06-21T09:14:24.439Z,3228.00
2018-06-21T09:15:24.422Z,3900.00
2018-06-21T09:16:24.422Z,4056.00
2018-06-21T09:17:24.435Z,4932.00
2018-06-21T09:18:24.439Z,5208.00
2018-06-21T09:19:24.464Z,5084.00
2018-06-21T09:20:24.451Z,4832.00
2018-06-21T09:21:27.280Z,4108.00
2018-06-21T09:22:24.464Z,4108.00
2018-06-21T09:23:24.474Z,3864.00
2018-06-21T09:24:24.486Z,4228.00
2018-06-21T09:25:24.489Z,4344.00
2018-06-21T09:26:24.495Z,4480.00
2018-06-21T09:27:24.507Z,4772.00
2018-06-21T09:28:24.508Z,4928.00
2018-06-21T09:29:24.514Z,4756.00
2018-06-21T09:30:24.525Z,4944.00
2018-06-21T09:31:24.533Z,4756.00
2018-06-21T09:32:24.551Z,4324.00
2018-06-21T09:33:24.567Z,4256.00
2018-06-21T09:34:24.552Z,4452.00
2018-06-21T09:35:26.296Z,4196.00
2018-06-21T09:36:24.579Z,4536.00
2018-06-21T09:37:24.574Z,4352.00
2018-06-21T09:38:24.613Z,4948.00
2018-06-21T09:39:24.593Z,4440.00
2018-06-21T09:40:24.600Z,4256.00
2018-06-21T09:41:24.608Z,4372.00
2018-06-21T09:42:24.621Z,4640.00
2018-06-21T09:43:24.621Z,4812.00
2018-06-21T09:44:24.653Z,4976.00
2018-06-21T09:45:24.660Z,4660.00
2018-06-21T09:46:33.876Z,4880.00
2018-06-21T09:47:24.651Z,5120.00
2018-06-21T09:48:24.660Z,4856.00
2018-06-21T09:49:24.668Z,4444.00
2018-06-21T09:50:24.699Z,4576.00
2018-06-21T09:51:24.680Z,4476.00
2018-06-21T09:52:24.720Z,4164.00
2018-06-21T09:53:24.694Z,4828.00
2018-06-21T09:54:24.699Z,4856.00
2018-06-21T09:55:24.732Z,4440.00
2018-06-21T09:56:24.742Z,4008.00
2018-06-21T09:57:24.750Z,3896.00
2018-06-21T09:58:24.730Z,4436.00
2018-06-21T09:59:24.743Z,4108.00
2018-06-21T10:00:24.773Z,4124.00
2018-06-21T10:01:24.750Z,4552.00
2018-06-21T10:02:24.760Z,5056.00
2018-06-21T10:03:24.763Z,5008.00
2018-06-21T10:04:24.808Z,5256.00
2018-06-21T10:05:24.781Z,5256.00
2018-06-21T10:06:24.789Z,5376.00
2018-06-21T10:07:24.836Z,5352.00
2018-06-21T10:08:24.804Z,5308.00
2018-06-21T10:09:24.815Z,5472.00
2018-06-21T10:10:24.841Z,5292.00
2018-06-21T10:11:24.827Z,5020.00
2018-06-21T10:12:24.888Z,5236.00
2018-06-21T10:13:24.842Z,4468.00
2018-06-21T10:14:24.848Z,4488.00
2018-06-21T10:15:24.854Z,5024.00
2018-06-21T10:16:24.863Z,4528.00
2018-06-21T10:17:24.871Z,4920.00
2018-06-21T10:18:24.876Z,4764.00
2018-06-21T10:19:24.905Z,4700.00
2018-06-21T10:20:24.903Z,5516.00
2018-06-21T10:21:24.900Z,5244.00
2018-06-21T10:22:24.906Z,3648.00
2018-06-21T10:23:24.916Z,5024.00
2018-06-21T10:24:24.939Z,4696.00
2018-06-21T10:25:24.930Z,3320.00
2018-06-21T10:26:24.938Z,4848.00
2018-06-21T10:27:24.957Z,4844.00
2018-06-21T10:28:24.952Z,4828.00
2018-06-21T10:29:24.967Z,4844.00
2018-06-21T10:30:24.966Z,5196.00
2018-06-21T10:31:24.999Z,4924.00
2018-06-21T10:32:24.981Z,4748.00
2018-06-21T10:33:25.004Z,4480.00
2018-06-21T10:34:25.000Z,4524.00
2018-06-21T10:35:25.011Z,4520.00
2018-06-21T10:36:25.031Z,3632.00
2018-06-21T10:37:25.022Z,3480.00
2018-06-21T10:38:25.042Z,3172.00
2018-06-21T10:39:25.044Z,2856.00
2018-06-21T10:40:25.048Z,2916.00
2018-06-21T10:41:25.079Z,3084.00
2018-06-21T10:42:25.078Z,2540.00
2018-06-21T10:43:25.069Z,2036.00
2018-06-21T10:44:25.090Z,1716.00
2018-06-21T10:45:25.105Z,1616.00
2018-06-21T10:46:25.118Z,1380.00
2018-06-21T10:47:25.115Z,1092.00
2018-06-21T10:48:25.105Z,1012.00
2018-06-21T10:49:25.113Z,1236.00
2018-06-21T10:50:25.120Z,1096.00
2018-06-21T10:51:25.162Z,1132.00
2018-06-21T10:52:25.147Z,1412.00
2018-06-21T10:53:25.148Z,1384.00
2018-06-21T10:54:25.155Z,1224.00
2018-06-21T10:55:25.156Z,1316.00
2018-06-21T10:56:25.162Z,1532.00
2018-06-21T10:57:25.175Z,1744.00
2018-06-21T10:58:25.193Z,2080.00
2018-06-21T10:59:25.182Z,2640.00
2018-06-21T11:00:25.192Z,2676.00
2018-06-21T11:01:25.229Z,2512.00
2018-06-21T11:02:25.232Z,2680.00
2018-06-21T11:03:25.237Z,2900.00
2018-06-21T11:04:25.238Z,2764.00
2018-06-21T11:05:25.224Z,2572.00
2018-06-21T11:06:25.225Z,2228.00
2018-06-21T11:07:25.239Z,1824.00
2018-06-21T11:08:25.270Z,1576.00
2018-06-21T11:09:25.246Z,1256.00
2018-06-21T11:10:25.261Z,1392.00
2018-06-21T11:11:25.262Z,1508.00
2018-06-21T11:12:25.285Z,1440.00
2018-06-21T11:13:25.301Z,1144.00
2018-06-21T11:14:25.284Z,772.00
2018-06-21T11:15:25.286Z,928.00
2018-06-21T11:16:25.296Z,892.00
2018-06-21T11:17:25.323Z,688.00
2018-06-21T11:18:25.303Z,764.00
2018-06-21T11:19:25.310Z,744.00
2018-06-21T11:20:25.336Z,940.00
2018-06-21T11:21:25.332Z,812.00
2018-06-21T11:22:25.329Z,1040.00
2018-06-21T11:23:25.353Z,1036.00
2018-06-21T11:24:25.346Z,1036.00
2018-06-21T11:25:25.380Z,1012.00
2018-06-21T11:26:25.358Z,1196.00
2018-06-21T11:27:25.374Z,1428.00
2018-06-21T11:28:25.370Z,1544.00
2018-06-21T11:29:25.375Z,1520.00
2018-06-21T11:30:25.382Z,1344.00
2018-06-21T11:31:25.385Z,1176.00
2018-06-21T11:32:25.388Z,1104.00
2018-06-21T11:33:25.418Z,1264.00
2018-06-21T11:34:25.425Z,1472.00
2018-06-21T11:35:25.413Z,1608.00
2018-06-21T11:36:25.434Z,1732.00
2018-06-21T11:37:25.440Z,1640.00
2018-06-21T11:38:25.452Z,1672.00
2018-06-21T11:39:25.458Z,1688.00
2018-06-21T11:40:25.463Z,1468.00
2018-06-21T11:41:25.440Z,964.00
2018-06-21T11:42:25.442Z,904.00
2018-06-21T11:43:25.454Z,516.00
2018-06-21T11:44:25.460Z,328.00
2018-06-21T11:45:25.475Z,292.00
2018-06-21T11:46:25.465Z,280.00
2018-06-21T11:47:25.485Z,336.00
2018-06-21T11:48:25.479Z,376.00
2018-06-21T11:49:25.483Z,388.00
2018-06-21T11:50:25.489Z,508.00
2018-06-21T11:51:25.494Z,668.00
2018-06-21T11:52:25.501Z,536.00
2018-06-21T11:53:25.503Z,680.00
2018-06-21T11:54:25.531Z,936.00
2018-06-21T11:55:25.515Z,784.00
2018-06-21T11:56:25.518Z,860.00
2018-06-21T11:57:25.525Z,1108.00
2018-06-21T11:58:25.551Z,1060.00
2018-06-21T11:59:25.535Z,1056.00
2018-06-21T12:00:25.540Z,1196.00
2018-06-21T12:01:25.562Z,1368.00
2018-06-21T12:02:25.546Z,1424.00
2018-06-21T12:03:25.584Z,1292.00
2018-06-21T12:04:25.577Z,868.00
2018-06-21T12:05:25.561Z,692.00
2018-06-21T12:06:25.567Z,616.00
2018-06-21T12:07:25.583Z,648.00
2018-06-21T12:08:25.580Z,652.00
2018-06-21T12:09:25.586Z,608.00
2018-06-21T12:10:25.609Z,596.00
2018-06-21T12:11:25.618Z,580.00
2018-06-21T12:12:25.617Z,544.00
2018-06-21T12:13:25.614Z,504.00
2018-06-21T12:14:25.627Z,480.00
2018-06-21T12:15:25.611Z,472.00
2018-06-21T12:16:25.618Z,452.00
2018-06-21T12:17:25.623Z,444.00
2018-06-21T12:18:25.651Z,476.00
2018-06-21T12:19:25.645Z,516.00
2018-06-21T12:20:25.626Z,580.00
2018-06-21T12:21:25.636Z,672.00
2018-06-21T12:22:25.636Z,776.00
2018-06-21T12:23:25.661Z,884.00
2018-06-21T12:24:25.690Z,1036.00
2018-06-21T12:25:25.678Z,1180.00
2018-06-21T12:26:25.739Z,1260.00
2018-06-21T12:27:25.657Z,1292.00